Time;durP1;ratioP1;P1;durP2;ratioP2;P2;SDS_P1;SDS_P2;PMS_P1;PMS_P2;Temp;Humidity;BMP_temperature;BMP_pressure;BME280_temperature;BME280_humidity;BME280_pressure;Samples;Min_cycle;Max_cycle;Signal;HPM_P1;HPM_P2
2022/05/05 00:01:33;;;;;;;6.60;3.20;;;;;;;;;;5032943;28;20186;-67
2022/05/05 00:03:59;;;;;;;4.90;2.77;;;;;;;;;;5015202;28;20647;-67
2022/05/05 00:06:26;;;;;;;5.70;3.33;;;;;;;;;;5032942;28;20214;-67
2022/05/05 00:08:52;;;;;;;6.30;3.50;;;;;;;;;;5015152;28;20568;-67
2022/05/05 00:16:47;;;;;;;5.80;3.50;;;;;;;;;;5033188;28;20194;-67
2022/05/05 00:19:13;;;;;;;4.27;3.20;;;;;;;;;;5032834;28;20214;-67
2022/05/05 00:21:39;;;;;;;4.20;3.47;;;;;;;;;;5032752;28;20179;-67
2022/05/05 00:24:06;;;;;;;7.40;3.40;;;;;;;;;;5032592;28;20215;-67
2022/05/05 00:26:32;;;;;;;5.80;3.67;;;;;;;;;;5015012;28;20187;-67
2022/05/05 00:28:58;;;;;;;5.27;3.50;;;;;;;;;;5032723;28;20198;-67
2022/05/05 00:31:24;;;;;;;4.67;2.87;;;;;;;;;;5014854;28;20207;-67
2022/05/05 00:33:50;;;;;;;6.57;3.60;;;;;;;;;;5032819;28;20203;-67
2022/05/05 00:36:16;;;;;;;4.17;3.10;;;;;;;;;;5032611;28;20198;-67
2022/05/05 00:38:42;;;;;;;8.10;3.60;;;;;;;;;;5032800;28;20186;-67
2022/05/05 00:41:08;;;;;;;5.87;3.27;;;;;;;;;;5032621;28;20180;-67
2022/05/05 00:43:34;;;;;;;5.33;3.83;;;;;;;;;;5014767;28;20261;-67
2022/05/05 00:46:01;;;;;;;5.43;3.60;;;;;;;;;;5015659;28;20184;-67
2022/05/05 00:48:27;;;;;;;6.00;3.73;;;;;;;;;;5014733;28;20183;-67
2022/05/05 00:50:53;;;;;;;4.70;3.27;;;;;;;;;;5014686;28;20298;-67
2022/05/05 00:53:20;;;;;;;7.07;3.30;;;;;;;;;;5017707;28;20206;-67
2022/05/05 00:55:46;;;;;;;6.73;3.70;;;;;;;;;;5036269;28;20635;-67
2022/05/05 00:58:13;;;;;;;10.87;3.40;;;;;;;;;;5018188;28;20270;-67
2022/05/05 01:00:39;;;;;;;3.53;3.20;;;;;;;;;;5036019;28;20233;-67
2022/05/05 01:03:08;;;;;;;6.33;3.57;;;;;;;;;;5035750;28;20179;-67
2022/05/05 01:05:34;;;;;;;5.10;3.17;;;;;;;;;;5035815;28;20175;-67
2022/05/05 01:08:02;;;;;;;8.67;3.20;;;;;;;;;;5018010;28;20662;-67
2022/05/05 01:10:27;;;;;;;11.20;3.87;;;;;;;;;;5035948;28;20206;-67
2022/05/05 01:12:54;;;;;;;3.27;2.97;;;;;;;;;;5035630;28;20179;-66
2022/05/05 01:15:20;;;;;;;7.80;3.57;;;;;;;;;;5017868;28;20183;-67
2022/05/05 01:17:46;;;;;;;4.50;3.50;;;;;;;;;;5035544;28;20171;-67
2022/05/05 01:20:13;;;;;;;5.63;3.27;;;;;;;;;;5035562;28;20179;-67
2022/05/05 01:22:39;;;;;;;7.40;3.47;;;;;;;;;;5035912;28;20183;-67
2022/05/05 01:30:34;;;;;;;7.73;3.47;;;;;;;;;;5035813;28;20253;-67
2022/05/05 01:33:00;;;;;;;7.43;3.60;;;;;;;;;;5017516;28;20179;-66
2022/05/05 01:35:26;;;;;;;5.93;3.53;;;;;;;;;;5035309;28;20179;-66
2022/05/05 01:37:52;;;;;;;6.57;3.80;;;;;;;;;;5035203;28;20547;-66
2022/05/05 01:40:18;;;;;;;6.03;3.70;;;;;;;;;;5035021;28;20226;-66
2022/05/05 01:42:44;;;;;;;5.60;3.63;;;;;;;;;;5017443;28;20269;-66
2022/05/05 01:45:10;;;;;;;7.97;3.43;;;;;;;;;;5034884;28;20191;-66
2022/05/05 01:47:37;;;;;;;6.00;4.03;;;;;;;;;;5034981;28;20175;-66
2022/05/05 01:50:03;;;;;;;8.27;4.00;;;;;;;;;;5017262;28;20179;-66
2022/05/05 01:52:29;;;;;;;5.60;3.60;;;;;;;;;;5034802;28;20207;-66
2022/05/05 01:54:55;;;;;;;7.50;3.87;;;;;;;;;;5017011;28;20190;-66
2022/05/05 01:57:21;;;;;;;8.07;4.57;;;;;;;;;;5034901;28;20171;-66
2022/05/05 01:59:47;;;;;;;7.17;3.87;;;;;;;;;;5017040;28;20270;-66
2022/05/05 02:02:13;;;;;;;7.80;4.17;;;;;;;;;;5034768;28;20190;-66
2022/05/05 02:04:39;;;;;;;6.07;4.00;;;;;;;;;;5016001;28;20214;-66
2022/05/05 02:07:05;;;;;;;5.63;3.50;;;;;;;;;;5034768;28;20592;-66
2022/05/05 02:09:31;;;;;;;5.00;3.83;;;;;;;;;;5034660;28;20591;-66
2022/05/05 02:11:57;;;;;;;6.80;3.70;;;;;;;;;;5016779;28;20214;-66
2022/05/05 02:14:23;;;;;;;6.60;3.80;;;;;;;;;;5034910;28;20195;-66
2022/05/05 02:16:49;;;;;;;4.50;3.83;;;;;;;;;;5018434;28;20174;-66
2022/05/05 02:19:15;;;;;;;6.50;4.03;;;;;;;;;;5018561;28;20175;-66
2022/05/05 02:21:41;;;;;;;7.13;3.70;;;;;;;;;;5018243;28;20241;-66
2022/05/05 02:24:07;;;;;;;5.57;4.20;;;;;;;;;;5036118;28;20215;-66
2022/05/05 02:26:33;;;;;;;8.30;3.83;;;;;;;;;;5034913;28;20308;-66
2022/05/05 02:28:59;;;;;;;6.43;3.83;;;;;;;;;;5017274;28;20672;-66
2022/05/05 02:31:25;;;;;;;6.20;3.93;;;;;;;;;;5034368;28;20663;-67
2022/05/05 02:33:51;;;;;;;7.37;4.10;;;;;;;;;;5034692;28;20202;-66
2022/05/05 02:39:02;;;;;;;8.17;4.30;;;;;;;;;;5034124;28;20162;-66
2022/05/05 02:41:28;;;;;;;5.83;3.90;;;;;;;;;;5034305;28;20182;-66
2022/05/05 02:43:53;;;;;;;8.17;4.10;;;;;;;;;;5016173;28;20214;-66
2022/05/05 02:46:19;;;;;;;6.53;3.80;;;;;;;;;;5034014;28;20179;-66
2022/05/05 02:48:45;;;;;;;9.50;4.80;;;;;;;;;;5033965;28;20210;-66
2022/05/05 02:51:11;;;;;;;4.77;4.00;;;;;;;;;;5033812;28;20225;-66
2022/05/05 02:56:22;;;;;;;6.93;4.10;;;;;;;;;;5034154;28;20225;-66
2022/05/05 02:58:48;;;;;;;5.97;4.20;;;;;;;;;;5033958;28;20586;-66
2022/05/05 03:01:13;;;;;;;5.97;4.43;;;;;;;;;;5033805;28;20539;-66
2022/05/05 03:03:39;;;;;;;4.97;4.47;;;;;;;;;;5033498;28;20306;-66
2022/05/05 03:06:06;;;;;;;9.63;4.50;;;;;;;;;;5015866;28;20183;-66
2022/05/05 03:08:32;;;;;;;10.10;4.30;;;;;;;;;;5015877;28;20601;-66
2022/05/05 03:13:30;;;;;;;15.73;4.87;;;;;;;;;;5052201;28;20237;-66
2022/05/05 03:15:56;;;;;;;7.90;4.70;;;;;;;;;;5035414;28;20210;-66
2022/05/05 03:18:22;;;;;;;6.17;4.80;;;;;;;;;;5035645;28;20175;-66
2022/05/05 03:20:49;;;;;;;6.60;4.90;;;;;;;;;;5053445;28;20175;-66
2022/05/05 03:23:15;;;;;;;8.13;5.13;;;;;;;;;;5053347;28;20262;-66
2022/05/05 03:25:41;;;;;;;5.80;4.33;;;;;;;;;;5035418;28;20189;-66
2022/05/05 03:28:07;;;;;;;9.90;5.20;;;;;;;;;;5053449;28;20179;-66
2022/05/05 03:30:33;;;;;;;8.57;4.63;;;;;;;;;;5035309;28;20702;-66
2022/05/05 03:32:59;;;;;;;11.27;4.63;;;;;;;;;;5053193;28;20316;-65
2022/05/05 03:35:24;;;;;;;8.83;5.13;;;;;;;;;;5053369;28;20826;-66
2022/05/05 03:37:50;;;;;;;8.57;4.80;;;;;;;;;;5053174;28;20519;-66
2022/05/05 03:40:17;;;;;;;7.40;4.90;;;;;;;;;;5053123;28;20189;-66
2022/05/05 03:42:43;;;;;;;11.40;5.40;;;;;;;;;;5053385;28;20201;-66
2022/05/05 03:45:09;;;;;;;7.97;5.10;;;;;;;;;;5053260;28;20253;-66
2022/05/05 03:47:35;;;;;;;9.53;5.00;;;;;;;;;;5035623;28;20273;-66
2022/05/05 03:50:01;;;;;;;9.03;4.97;;;;;;;;;;5054073;28;20225;-66
2022/05/05 03:52:27;;;;;;;11.27;5.37;;;;;;;;;;5054608;28;20206;-66
2022/05/05 03:54:53;;;;;;;8.60;5.80;;;;;;;;;;5053978;28;20525;-66
2022/05/05 03:57:19;;;;;;;7.10;5.60;;;;;;;;;;5053356;28;20181;-66
2022/05/05 03:59:45;;;;;;;8.60;5.03;;;;;;;;;;5053426;28;20185;-66
2022/05/05 04:02:11;;;;;;;9.47;5.20;;;;;;;;;;5035207;28;20206;-66
2022/05/05 04:04:37;;;;;;;10.83;5.37;;;;;;;;;;5035383;28;20193;-66
2022/05/05 04:07:03;;;;;;;8.30;5.00;;;;;;;;;;5053455;28;20175;-66
2022/05/05 04:09:29;;;;;;;9.27;5.33;;;;;;;;;;5035397;28;20189;-66
2022/05/05 04:11:55;;;;;;;6.47;5.07;;;;;;;;;;5035066;28;20218;-65
2022/05/05 04:14:21;;;;;;;7.37;4.93;;;;;;;;;;5052958;28;20178;-65
2022/05/05 04:16:47;;;;;;;7.03;5.00;;;;;;;;;;5053130;28;20175;-66
2022/05/05 04:19:14;;;;;;;8.10;5.57;;;;;;;;;;5035388;28;20190;-66
2022/05/05 04:21:40;;;;;;;6.30;5.17;;;;;;;;;;5035023;28;20567;-65
2022/05/05 04:24:06;;;;;;;6.57;4.63;;;;;;;;;;5053053;28;20170;-65
2022/05/05 04:26:32;;;;;;;8.47;5.23;;;;;;;;;;5053483;28;20571;-65
2022/05/05 04:28:58;;;;;;;7.73;5.47;;;;;;;;;;5056962;28;20182;-65
2022/05/05 04:31:27;;;;;;;12.87;5.33;;;;;;;;;;5038779;28;20221;-65
2022/05/05 04:33:53;;;;;;;9.10;5.57;;;;;;;;;;5057146;28;20182;-65
2022/05/05 04:36:19;;;;;;;8.70;6.57;;;;;;;;;;5056713;28;20174;-65
2022/05/05 04:38:45;;;;;;;8.33;6.13;;;;;;;;;;5056868;28;20181;-65
2022/05/05 04:41:11;;;;;;;10.27;5.50;;;;;;;;;;5056726;28;20182;-65
2022/05/05 04:43:37;;;;;;;9.13;5.70;;;;;;;;;;5056302;28;20182;-65
2022/05/05 04:46:03;;;;;;;8.77;6.17;;;;;;;;;;5056576;28;20182;-65
2022/05/05 04:48:29;;;;;;;15.53;6.00;;;;;;;;;;5038423;28;20179;-66
2022/05/05 04:50:55;;;;;;;9.67;5.60;;;;;;;;;;5056195;28;20233;-65
2022/05/05 04:53:21;;;;;;;10.93;6.43;;;;;;;;;;5038670;28;20228;-67
2022/05/05 04:55:47;;;;;;;11.07;5.97;;;;;;;;;;5038434;28;20183;-66
2022/05/05 04:58:13;;;;;;;9.30;5.60;;;;;;;;;;5038447;28;20186;-65
2022/05/05 05:00:39;;;;;;;12.63;6.60;;;;;;;;;;5056052;28;20183;-66
2022/05/05 05:03:32;;;;;;;8.30;6.20;;;;;;;;;;5038071;28;20202;-65
2022/05/05 05:05:51;;;;;;;9.47;6.33;;;;;;;;;;5055893;28;20273;-65
2022/05/05 05:08:17;;;;;;;12.70;6.60;;;;;;;;;;5038301;28;20210;-65
2022/05/05 05:10:43;;;;;;;10.90;6.43;;;;;;;;;;5055766;28;20700;-65
2022/05/05 05:13:09;;;;;;;11.13;5.83;;;;;;;;;;5055614;28;20220;-68
2022/05/05 05:15:35;;;;;;;14.90;6.33;;;;;;;;;;5037822;28;20182;-65
2022/05/05 05:18:01;;;;;;;8.03;5.40;;;;;;;;;;5037580;28;20175;-65
2022/05/05 05:20:27;;;;;;;8.60;5.70;;;;;;;;;;5037408;28;20174;-65
2022/05/05 05:22:53;;;;;;;10.03;5.93;;;;;;;;;;5056034;28;20525;-65
2022/05/05 05:25:19;;;;;;;15.63;6.47;;;;;;;;;;5055544;28;20643;-65
2022/05/05 05:27:45;;;;;;;10.17;6.53;;;;;;;;;;5055485;28;20261;-65
2022/05/05 05:30:11;;;;;;;10.40;6.70;;;;;;;;;;5037496;28;20205;-66
2022/05/05 05:32:37;;;;;;;9.63;6.07;;;;;;;;;;5055159;28;20698;-66
2022/05/05 05:35:03;;;;;;;10.77;5.53;;;;;;;;;;5055653;28;20175;-65
2022/05/05 05:37:29;;;;;;;7.27;5.73;;;;;;;;;;5055225;28;20547;-65
2022/05/05 05:39:55;;;;;;;10.40;6.50;;;;;;;;;;5037279;28;20182;-65
2022/05/05 05:42:21;;;;;;;11.97;6.27;;;;;;;;;;5037308;28;20573;-65
2022/05/05 05:44:47;;;;;;;10.47;6.90;;;;;;;;;;5037164;28;20182;-65
2022/05/05 05:47:13;;;;;;;14.50;6.43;;;;;;;;;;5055231;28;20179;-65
2022/05/05 05:49:39;;;;;;;9.90;6.30;;;;;;;;;;5055343;28;20631;-65
2022/05/05 05:52:05;;;;;;;10.97;6.03;;;;;;;;;;5037019;28;20718;-65
2022/05/05 05:54:31;;;;;;;12.43;6.07;;;;;;;;;;5055162;28;20186;-66
2022/05/05 05:56:57;;;;;;;11.77;6.00;;;;;;;;;;5036978;28;20264;-65
2022/05/05 05:59:23;;;;;;;9.27;5.87;;;;;;;;;;5036994;28;20213;-65
2022/05/05 06:04:34;;;;;;;11.07;6.23;;;;;;;;;;5055180;28;20685;-65
2022/05/05 06:07:00;;;;;;;10.20;6.33;;;;;;;;;;5055080;28;20185;-65
2022/05/05 06:09:27;;;;;;;10.13;5.83;;;;;;;;;;5037151;28;20200;-69
2022/05/05 06:11:52;;;;;;;9.73;5.93;;;;;;;;;;5036778;28;20583;-65
2022/05/05 06:14:19;;;;;;;13.03;6.00;;;;;;;;;;5036799;28;20224;-65
2022/05/05 06:16:45;;;;;;;8.67;6.10;;;;;;;;;;5054731;28;20232;-66
2022/05/05 06:19:11;;;;;;;8.90;5.50;;;;;;;;;;5036711;28;20182;-65
2022/05/05 06:21:37;;;;;;;11.53;6.10;;;;;;;;;;5036785;28;20202;-65
2022/05/05 06:24:03;;;;;;;12.87;5.43;;;;;;;;;;5054504;28;20182;-66
2022/05/05 06:26:29;;;;;;;8.83;6.00;;;;;;;;;;5054272;28;20178;-64
2022/05/05 06:28:56;;;;;;;8.80;5.93;;;;;;;;;;5054371;28;20269;-65
2022/05/05 06:31:22;;;;;;;10.50;6.17;;;;;;;;;;5036305;28;20260;-65
2022/05/05 06:33:49;;;;;;;11.73;6.20;;;;;;;;;;5054478;28;20202;-66
2022/05/05 06:36:15;;;;;;;10.57;5.63;;;;;;;;;;5036242;28;20178;-65
2022/05/05 06:38:41;;;;;;;9.97;6.23;;;;;;;;;;5036310;28;20170;-65
2022/05/05 06:41:08;;;;;;;10.67;5.40;;;;;;;;;;5053980;28;20178;-65
2022/05/05 06:43:34;;;;;;;12.30;5.83;;;;;;;;;;5055038;28;20179;-65
2022/05/05 06:46:00;;;;;;;9.77;6.07;;;;;;;;;;5053866;28;20236;-65
2022/05/05 06:48:26;;;;;;;7.70;5.27;;;;;;;;;;5053836;28;20178;-65
2022/05/05 06:50:52;;;;;;;7.03;5.53;;;;;;;;;;5053365;28;20198;-65
2022/05/05 06:53:18;;;;;;;9.17;5.53;;;;;;;;;;5053949;28;20251;-65
2022/05/05 06:55:44;;;;;;;6.80;5.17;;;;;;;;;;5054567;28;20171;-66
2022/05/05 06:58:10;;;;;;;8.60;5.07;;;;;;;;;;5036414;28;20279;-66
2022/05/05 07:03:21;;;;;;;11.63;4.87;;;;;;;;;;5053771;28;20200;-66
2022/05/05 07:05:46;;;;;;;7.77;4.83;;;;;;;;;;5053636;28;20179;-66
2022/05/05 07:08:12;;;;;;;10.07;4.87;;;;;;;;;;5053961;28;20171;-66
2022/05/05 07:10:53;;;;;;;11.07;6.30;;;;;;;;;;5053579;28;20198;-66
2022/05/05 07:13:23;;;;;;;13.80;6.73;;;;;;;;;;5053362;28;20210;-65
2022/05/05 07:15:49;;;;;;;10.03;6.60;;;;;;;;;;5053516;28;20646;-66
2022/05/05 07:18:15;;;;;;;13.27;7.17;;;;;;;;;;5053620;28;20185;-66
2022/05/05 07:20:41;;;;;;;10.87;6.23;;;;;;;;;;5035472;28;20210;-66
2022/05/05 07:23:12;;;;;;;14.97;6.60;;;;;;;;;;5053658;28;20270;-66
2022/05/05 07:25:38;;;;;;;10.80;5.50;;;;;;;;;;5053323;28;20615;-66
2022/05/05 07:28:04;;;;;;;9.23;6.03;;;;;;;;;;5035390;28;20193;-66
2022/05/05 07:30:30;;;;;;;13.07;5.77;;;;;;;;;;5053139;28;20178;-66
2022/05/05 07:32:56;;;;;;;8.63;5.60;;;;;;;;;;5035881;28;20263;-66
2022/05/05 07:35:22;;;;;;;12.67;5.30;;;;;;;;;;5053071;28;20210;-66
2022/05/05 07:37:48;;;;;;;8.40;5.50;;;;;;;;;;5035338;28;20179;-66
2022/05/05 07:40:14;;;;;;;11.57;5.37;;;;;;;;;;5053186;28;20171;-66
2022/05/05 07:42:41;;;;;;;6.90;5.40;;;;;;;;;;5035391;28;20202;-65
2022/05/05 07:45:08;;;;;;;11.00;5.90;;;;;;;;;;5053195;28;20170;-66
2022/05/05 07:47:34;;;;;;;13.67;5.53;;;;;;;;;;5035725;28;20198;-66
2022/05/05 07:50:00;;;;;;;13.93;6.70;;;;;;;;;;5053552;28;20182;-66
2022/05/05 07:52:26;;;;;;;13.00;5.80;;;;;;;;;;5052804;28;20209;-65
2022/05/05 07:54:53;;;;;;;11.87;6.17;;;;;;;;;;5053062;28;20172;-65
2022/05/05 07:57:20;;;;;;;15.27;6.23;;;;;;;;;;5053009;28;20527;-66
2022/05/05 07:59:47;;;;;;;10.80;6.73;;;;;;;;;;5053672;28;20622;-65
2022/05/05 08:02:13;;;;;;;11.87;7.10;;;;;;;;;;5036616;28;20198;-64
2022/05/05 08:04:40;;;;;;;11.70;6.70;;;;;;;;;;5039109;28;20481;-65
2022/05/05 08:07:06;;;;;;;14.33;7.13;;;;;;;;;;5057457;28;20364;-64
2022/05/05 08:09:32;;;;;;;12.37;6.97;;;;;;;;;;5056833;28;20671;-65
2022/05/05 08:12:01;;;;;;;12.97;6.87;;;;;;;;;;5057039;28;20210;-65
2022/05/05 08:14:28;;;;;;;14.83;6.73;;;;;;;;;;5056830;28;20171;-66
2022/05/05 08:16:54;;;;;;;12.30;7.20;;;;;;;;;;5057068;28;20174;-66
2022/05/05 08:19:21;;;;;;;16.17;6.97;;;;;;;;;;5038831;28;20182;-66
2022/05/05 08:21:47;;;;;;;12.20;7.83;;;;;;;;;;5038999;28;20293;-66
2022/05/05 08:29:42;;;;;;;15.13;8.87;;;;;;;;;;5057271;28;20209;-66
2022/05/05 08:32:08;;;;;;;16.30;9.67;;;;;;;;;;5057204;28;20229;-65
2022/05/05 08:34:34;;;;;;;15.67;8.90;;;;;;;;;;5057370;28;20209;-64
2022/05/05 08:37:00;;;;;;;13.13;8.33;;;;;;;;;;5056872;28;20175;-65
2022/05/05 08:39:26;;;;;;;15.63;8.30;;;;;;;;;;5057115;28;20179;-66
2022/05/05 08:41:55;;;;;;;13.23;7.50;;;;;;;;;;5038850;28;20230;-67
2022/05/05 08:44:21;;;;;;;13.63;8.43;;;;;;;;;;5056547;28;20182;-66
2022/05/05 08:46:49;;;;;;;14.23;8.60;;;;;;;;;;5056544;28;20179;-68
2022/05/05 08:49:18;;;;;;;12.27;8.17;;;;;;;;;;5056484;28;20179;-67
2022/05/05 08:51:45;;;;;;;16.57;8.37;;;;;;;;;;5056544;28;20256;-65
2022/05/05 08:54:16;;;;;;;13.60;8.90;;;;;;;;;;5056984;28;20515;-65
2022/05/05 08:56:42;;;;;;;15.50;8.37;;;;;;;;;;5038601;28;20198;-67
2022/05/05 08:59:09;;;;;;;15.60;7.47;;;;;;;;;;5056476;28;20186;-65
2022/05/05 09:01:36;;;;;;;12.03;7.27;;;;;;;;;;5038370;28;20289;-66
2022/05/05 09:04:04;;;;;;;12.90;8.07;;;;;;;;;;5038579;28;20186;-66
2022/05/05 09:06:42;;;;;;;14.87;8.10;;;;;;;;;;5038552;28;20716;-66
2022/05/05 09:09:23;;;;;;;14.60;8.43;;;;;;;;;;5038173;28;20178;-67
2022/05/05 09:12:09;;;;;;;12.43;8.13;;;;;;;;;;5037721;28;20322;-66
2022/05/05 09:14:39;;;;;;;14.83;8.63;;;;;;;;;;5056088;28;20181;-66
2022/05/05 09:17:06;;;;;;;10.50;6.90;;;;;;;;;;5055657;28;20642;-67
2022/05/05 09:19:36;;;;;;;14.40;8.57;;;;;;;;;;5055910;28;20170;-66
2022/05/05 09:22:03;;;;;;;16.17;8.90;;;;;;;;;;5037716;28;20206;-67
2022/05/05 09:24:35;;;;;;;15.20;8.97;;;;;;;;;;5055784;28;20178;-66
2022/05/05 09:27:16;;;;;;;12.60;8.67;;;;;;;;;;5055696;28;20174;-67
2022/05/05 09:29:43;;;;;;;14.03;8.30;;;;;;;;;;5037568;28;20255;-66
2022/05/05 09:32:12;;;;;;;13.87;8.47;;;;;;;;;;5055667;28;20218;-66
2022/05/05 09:34:41;;;;;;;11.67;7.90;;;;;;;;;;5055734;28;20187;-66
2022/05/05 09:37:19;;;;;;;14.57;7.57;;;;;;;;;;5055627;28;20653;-66
2022/05/05 09:39:45;;;;;;;14.80;7.73;;;;;;;;;;5055643;28;20244;-66
2022/05/05 09:42:11;;;;;;;12.73;7.77;;;;;;;;;;5055123;28;20688;-66
2022/05/05 09:44:45;;;;;;;18.37;9.03;;;;;;;;;;5037461;28;20182;-66
2022/05/05 09:47:19;;;;;;;12.67;8.00;;;;;;;;;;5055283;28;20175;-67
2022/05/05 09:49:57;;;;;;;11.77;7.23;;;;;;;;;;5055802;28;20181;-67
2022/05/05 09:57:58;;;;;;;13.07;7.60;;;;;;;;;;5055479;28;20201;-66
2022/05/05 10:05:45;;;;;;;13.97;7.93;;;;;;;;;;5055127;28;20296;-70
2022/05/05 10:08:15;;;;;;;12.77;7.50;;;;;;;;;;5054754;28;20186;-67
2022/05/05 10:10:42;;;;;;;9.67;6.70;;;;;;;;;;5055428;28;20171;-66
2022/05/05 10:13:08;;;;;;;12.17;8.13;;;;;;;;;;5055087;28;20546;-65
2022/05/05 10:15:34;;;;;;;12.47;8.00;;;;;;;;;;5054817;28;20208;-66
2022/05/05 10:18:02;;;;;;;11.77;8.33;;;;;;;;;;5036746;28;20227;-66
2022/05/05 10:20:29;;;;;;;15.07;8.50;;;;;;;;;;5054635;28;20260;-66
2022/05/05 10:23:02;;;;;;;12.53;8.43;;;;;;;;;;5054868;28;20317;-67
2022/05/05 10:25:32;;;;;;;11.10;7.53;;;;;;;;;;5054162;28;20163;-66
2022/05/05 10:27:59;;;;;;;16.27;9.13;;;;;;;;;;5055180;28;20151;-66
2022/05/05 10:30:35;;;;;;;12.97;8.47;;;;;;;;;;5036749;28;20256;-66
2022/05/05 10:33:02;;;;;;;15.80;8.83;;;;;;;;;;5054436;28;20213;-67
2022/05/05 10:35:37;;;;;;;13.73;7.67;;;;;;;;;;5054433;28;20697;-67
2022/05/05 10:38:02;;;;;;;13.43;8.53;;;;;;;;;;5054645;28;20684;-67
2022/05/05 10:40:43;;;;;;;11.80;8.17;;;;;;;;;;5036078;28;20178;-65
2022/05/05 10:43:10;;;;;;;18.20;8.10;;;;;;;;;;5054144;28;20242;-65
2022/05/05 10:45:36;;;;;;;13.03;7.87;;;;;;;;;;5036021;28;20190;-64
2022/05/05 10:48:04;;;;;;;12.70;8.23;;;;;;;;;;5053909;28;20178;-65
2022/05/05 10:50:30;;;;;;;18.10;8.67;;;;;;;;;;5054275;28;20175;-65
2022/05/05 10:52:57;;;;;;;12.97;7.93;;;;;;;;;;5054129;28;20195;-65
2022/05/05 10:55:35;;;;;;;14.17;7.90;;;;;;;;;;5054188;28;20186;-65
2022/05/05 10:58:01;;;;;;;13.30;8.37;;;;;;;;;;5053862;28;20178;-65
2022/05/05 11:00:44;;;;;;;13.27;7.23;;;;;;;;;;5036122;28;20206;-64
2022/05/05 11:03:10;;;;;;;11.73;7.20;;;;;;;;;;5053854;28;20239;-64
2022/05/05 11:05:36;;;;;;;11.07;7.50;;;;;;;;;;5053945;28;20186;-65
2022/05/05 11:08:08;;;;;;;11.37;7.63;;;;;;;;;;5053535;28;20655;-65
2022/05/05 11:10:44;;;;;;;11.37;7.83;;;;;;;;;;5053473;28;20232;-65
2022/05/05 11:13:29;;;;;;;11.70;7.07;;;;;;;;;;5053440;28;20202;-65
2022/05/05 11:21:35;;;;;;;7.67;6.40;;;;;;;;;;5053617;28;20736;-67
2022/05/05 11:24:02;;;;;;;12.50;6.93;;;;;;;;;;5053732;28;20649;-65
2022/05/05 11:26:29;;;;;;;9.77;6.97;;;;;;;;;;5035833;28;20197;-65
2022/05/05 11:28:58;;;;;;;11.77;7.67;;;;;;;;;;5053688;28;20648;-65
2022/05/05 11:31:29;;;;;;;39.77;16.20;;;;;;;;;;5053336;28;20229;-65
2022/05/05 11:33:57;;;;;;;31.20;13.17;;;;;;;;;;5053307;28;20216;-63
2022/05/05 11:36:27;;;;;;;15.60;9.27;;;;;;;;;;5035283;28;20186;-65
2022/05/05 11:38:53;;;;;;;13.60;7.97;;;;;;;;;;5053190;28;20193;-65
2022/05/05 11:41:20;;;;;;;11.13;7.03;;;;;;;;;;5035562;28;21875;-65
2022/05/05 11:46:31;;;;;;;10.70;6.00;;;;;;;;;;5053276;28;20261;-65
2022/05/05 11:48:57;;;;;;;8.67;5.90;;;;;;;;;;5053120;28;20212;-66
2022/05/05 11:51:27;;;;;;;12.00;6.73;;;;;;;;;;5053063;28;20571;-65
2022/05/05 11:54:06;;;;;;;9.90;6.70;;;;;;;;;;5053108;28;20281;-65
2022/05/05 11:56:34;;;;;;;10.27;6.50;;;;;;;;;;5053157;28;20170;-65
2022/05/05 12:02:04;;;;;;;10.63;7.20;;;;;;;;;;5053384;28;20689;-65
2022/05/05 12:04:30;;;;;;;11.67;7.70;;;;;;;;;;5037314;28;20191;-65
2022/05/05 12:06:58;;;;;;;9.40;6.77;;;;;;;;;;5039188;28;20646;-65
2022/05/05 12:09:24;;;;;;;11.00;6.33;;;;;;;;;;5057145;28;20166;-66
2022/05/05 12:11:50;;;;;;;8.63;7.27;;;;;;;;;;5056502;28;20742;-65
2022/05/05 12:14:18;;;;;;;9.23;6.53;;;;;;;;;;5038039;28;20724;-66
2022/05/05 12:16:44;;;;;;;12.57;6.80;;;;;;;;;;5034962;28;20255;-65
2022/05/05 12:19:11;;;;;;;9.97;6.83;;;;;;;;;;5035064;28;20174;-65
2022/05/05 12:21:38;;;;;;;10.13;6.80;;;;;;;;;;5053417;28;20202;-66
2022/05/05 12:24:05;;;;;;;10.77;6.93;;;;;;;;;;5053009;28;20548;-65
2022/05/05 12:26:32;;;;;;;11.57;6.77;;;;;;;;;;5052783;28;20205;-65
2022/05/05 12:28:58;;;;;;;8.93;6.10;;;;;;;;;;5053249;28;20173;-66
2022/05/05 12:31:24;;;;;;;10.97;6.80;;;;;;;;;;5052932;28;20678;-66
2022/05/05 12:33:51;;;;;;;10.60;7.33;;;;;;;;;;5034852;28;20551;-67
2022/05/05 12:36:17;;;;;;;13.23;7.40;;;;;;;;;;5034827;28;20206;-66
2022/05/05 12:38:43;;;;;;;8.57;6.20;;;;;;;;;;5052826;28;20554;-66
2022/05/05 12:41:09;;;;;;;8.60;6.23;;;;;;;;;;5052697;28;20183;-66
2022/05/05 12:43:35;;;;;;;13.87;6.87;;;;;;;;;;5052474;28;20183;-66
2022/05/05 12:46:02;;;;;;;11.70;6.60;;;;;;;;;;5052875;28;20182;-66
2022/05/05 12:48:28;;;;;;;10.67;6.17;;;;;;;;;;5054918;28;20232;-66
2022/05/05 12:50:54;;;;;;;7.40;5.77;;;;;;;;;;5038185;28;20624;-66
2022/05/05 13:01:44;;;;;;;12.57;5.77;;;;;;;;;;5056119;28;20176;-66
2022/05/05 13:04:13;;;;;;;7.90;5.83;;;;;;;;;;5038239;28;20569;-66
2022/05/05 13:06:39;;;;;;;10.70;5.93;;;;;;;;;;5056248;28;20187;-66
2022/05/05 13:09:08;;;;;;;7.37;6.07;;;;;;;;;;5038130;28;20182;-66
2022/05/05 13:11:34;;;;;;;10.17;6.27;;;;;;;;;;5055757;28;20221;-66
2022/05/05 13:14:01;;;;;;;10.70;5.80;;;;;;;;;;5037990;28;20671;-67
2022/05/05 13:16:28;;;;;;;11.03;5.87;;;;;;;;;;5056318;28;20249;-66
2022/05/05 13:18:54;;;;;;;6.77;5.03;;;;;;;;;;5056207;28;20170;-67
2022/05/05 13:21:20;;;;;;;7.83;5.57;;;;;;;;;;5056069;28;20709;-66
2022/05/05 13:23:46;;;;;;;8.60;5.63;;;;;;;;;;5037991;28;20182;-66
2022/05/05 13:26:12;;;;;;;8.33;5.10;;;;;;;;;;5056041;28;20649;-66
2022/05/05 13:28:38;;;;;;;7.30;4.70;;;;;;;;;;5037685;28;20179;-66
2022/05/05 13:31:04;;;;;;;7.20;5.23;;;;;;;;;;5055318;28;20212;-66
2022/05/05 13:33:30;;;;;;;5.50;5.00;;;;;;;;;;5055382;28;20189;-66
2022/05/05 13:35:56;;;;;;;7.53;4.70;;;;;;;;;;5037454;28;20290;-66
2022/05/05 13:38:26;;;;;;;7.17;5.27;;;;;;;;;;5055831;28;20658;-66
2022/05/05 13:40:52;;;;;;;6.17;4.67;;;;;;;;;;5055362;28;20224;-66
2022/05/05 13:43:18;;;;;;;5.73;4.30;;;;;;;;;;5037537;28;20182;-66
2022/05/05 13:45:44;;;;;;;5.20;3.70;;;;;;;;;;5037406;28;20236;-65
2022/05/05 13:48:11;;;;;;;4.90;3.97;;;;;;;;;;5037305;28;20178;-65
2022/05/05 13:50:37;;;;;;;3.60;3.17;;;;;;;;;;5037255;28;20183;-65
2022/05/05 13:53:03;;;;;;;5.00;4.13;;;;;;;;;;5055054;28;20171;-66
2022/05/05 13:55:29;;;;;;;6.13;4.70;;;;;;;;;;5037156;28;20209;-66
2022/05/05 13:57:58;;;;;;;3.90;3.27;;;;;;;;;;5055010;28;20260;-66
2022/05/05 14:00:25;;;;;;;7.07;4.57;;;;;;;;;;5054197;28;20182;-66
2022/05/05 14:02:51;;;;;;;6.00;4.50;;;;;;;;;;5055038;28;20225;-66
2022/05/05 14:05:17;;;;;;;4.80;4.30;;;;;;;;;;5054836;28;20631;-65
2022/05/05 14:13:23;;;;;;;4.63;3.53;;;;;;;;;;5055172;28;20162;-65
2022/05/05 14:15:49;;;;;;;5.93;3.53;;;;;;;;;;5036921;28;20194;-65
2022/05/05 14:18:18;;;;;;;3.80;3.20;;;;;;;;;;5054466;28;20604;-65
2022/05/05 14:20:44;;;;;;;5.13;4.07;;;;;;;;;;5054852;28;20174;-65
2022/05/05 14:23:10;;;;;;;4.90;4.23;;;;;;;;;;5054825;28;20266;-65
2022/05/05 14:25:36;;;;;;;3.07;2.87;;;;;;;;;;5054759;28;20226;-64
2022/05/05 14:28:02;;;;;;;5.53;3.90;;;;;;;;;;5037103;28;20273;-65
2022/05/05 14:30:28;;;;;;;6.20;3.47;;;;;;;;;;5054480;28;20692;-66
2022/05/05 14:32:54;;;;;;;7.67;3.57;;;;;;;;;;5036256;28;20198;-65
2022/05/05 14:35:20;;;;;;;5.47;3.43;;;;;;;;;;5054512;28;20298;-66
2022/05/05 14:37:46;;;;;;;4.97;3.50;;;;;;;;;;5036303;28;20194;-65
2022/05/05 14:40:12;;;;;;;4.43;3.00;;;;;;;;;;5054306;28;20186;-65
2022/05/05 14:42:38;;;;;;;4.97;2.80;;;;;;;;;;5056487;28;20205;-65
2022/05/05 14:45:05;;;;;;;4.03;3.00;;;;;;;;;;5041636;28;20243;-66
2022/05/05 14:47:31;;;;;;;4.10;3.03;;;;;;;;;;5059539;28;20251;-66
2022/05/05 14:49:57;;;;;;;3.93;2.93;;;;;;;;;;5059767;28;20601;-66
2022/05/05 14:52:23;;;;;;;3.80;3.17;;;;;;;;;;5059083;28;20666;-66
2022/05/05 14:54:50;;;;;;;5.13;3.20;;;;;;;;;;5054422;28;20677;-66
2022/05/05 14:57:16;;;;;;;4.67;2.83;;;;;;;;;;5053849;28;20182;-66
2022/05/05 14:59:43;;;;;;;4.20;3.00;;;;;;;;;;5053843;28;20657;-66
2022/05/05 15:02:09;;;;;;;3.23;2.93;;;;;;;;;;5053809;28;20213;-66
2022/05/05 15:04:35;;;;;;;2.93;2.67;;;;;;;;;;5036645;28;20214;-66
2022/05/05 15:07:02;;;;;;;3.47;2.73;;;;;;;;;;5053627;28;20209;-66
2022/05/05 15:09:28;;;;;;;3.83;2.97;;;;;;;;;;5053577;28;20185;-65
2022/05/05 15:11:55;;;;;;;5.10;2.70;;;;;;;;;;5035226;28;20202;-65
2022/05/05 15:14:21;;;;;;;3.53;3.07;;;;;;;;;;5035636;28;20198;-65
2022/05/05 15:16:47;;;;;;;3.77;3.23;;;;;;;;;;5035730;28;20183;-65
2022/05/05 15:19:13;;;;;;;5.00;3.77;;;;;;;;;;5053706;28;20706;-66
2022/05/05 15:21:39;;;;;;;4.90;3.70;;;;;;;;;;5035543;28;20178;-66
2022/05/05 15:24:05;;;;;;;5.23;3.90;;;;;;;;;;5053756;28;20221;-66
2022/05/05 15:26:31;;;;;;;4.43;3.20;;;;;;;;;;5035481;28;20189;-66
2022/05/05 15:28:57;;;;;;;4.13;3.20;;;;;;;;;;5035620;28;20182;-66
2022/05/05 15:31:26;;;;;;;3.53;2.80;;;;;;;;;;5053747;28;20202;-66
2022/05/05 15:33:52;;;;;;;5.73;3.60;;;;;;;;;;5053254;28;20638;-68
2022/05/05 15:36:18;;;;;;;3.60;3.03;;;;;;;;;;5053874;28;20171;-68
2022/05/05 15:38:49;;;;;;;6.90;3.17;;;;;;;;;;5035759;28;20213;-67
2022/05/05 15:41:15;;;;;;;4.87;3.33;;;;;;;;;;5035689;28;20610;-67
2022/05/05 15:43:41;;;;;;;6.57;3.90;;;;;;;;;;5053197;28;20178;-67